Forside
METAR-TAF:

METAR-TAF

Lufthavne :

Jammu, Indien

Breddekreds: 32-41-21N, længdekreds: 74-50-15E, højde: 314 m

METAR: fraværende

Tid: 12:37 (07:07 UTC)

Vejrudsigter

Denne rapport blev lavet for 3 timer og 37 minutter siden, kl. 03:30 UTC
Foreløbig gælder fra 29 på 06 UTC til 29 på 18 UTC
Vind 5 kt fra sydøst
Sigt: 6000 m
Spredte skyer i en højde af 2000 ft
Brudte skyer i en højde af 9000 ft
Midlertidig
fra 29 på 06 UTC til 29 på 09 UTC
Vind 5 kt fra sydøst med vindstød på up til 15 kt
Sigt: 4000 m
Spredte skyer i en højde af 2000 ft
Brudte skyer i en højde af 9000 ft
tordenbyger, regn

TAF: VIJU 290330Z 2906/2918 14005KT 6000 SCT020 BKN090 TEMPO 2906/2909 14005G15KT 4000 TSRA SCT020 FEWTCU/CB030 BKN090

Vejrobservationer og prognoser fra mere end 4000 lufthavne (METAR og TAF).

De gule og røde prikker repræsenterer de meteorologiske stationer.

Flyt musen over at se navnet på stationen.

Så klik over at se vejr observationer og prognoser.

At skifte det kort: Klik på de grønne knapper med et sort kors for at zoome ind; på den grønne knap med en bindestreg for at zoome ud; eller på de grønne pile for tilstødende kort.


METAR-TAF: